sensor_id;sensor_type;location;lat;lon;timestamp;P1;durP1;ratioP1;P2;durP2;ratioP2
17283;SDS011;8760;52.248;20.952;2023-04-25T00:00:50;15.63;;;11.97;;
17283;SDS011;8760;52.248;20.952;2023-04-25T00:03:19;17.17;;;11.77;;
17283;SDS011;8760;52.248;20.952;2023-04-25T00:05:47;16.07;;;12.07;;
17283;SDS011;8760;52.248;20.952;2023-04-25T00:08:14;14.57;;;12.10;;
17283;SDS011;8760;52.248;20.952;2023-04-25T00:10:41;16.43;;;12.13;;
17283;SDS011;8760;52.248;20.952;2023-04-25T00:13:07;13.90;;;12.50;;
17283;SDS011;8760;52.248;20.952;2023-04-25T00:15:36;14.10;;;12.70;;
17283;SDS011;8760;52.248;20.952;2023-04-25T00:18:03;16.27;;;12.43;;
17283;SDS011;8760;52.248;20.952;2023-04-25T00:20:33;15.33;;;12.40;;
17283;SDS011;8760;52.248;20.952;2023-04-25T00:23:01;14.53;;;12.83;;
17283;SDS011;8760;52.248;20.952;2023-04-25T00:25:28;16.50;;;13.03;;
17283;SDS011;8760;52.248;20.952;2023-04-25T00:27:55;15.70;;;12.97;;
17283;SDS011;8760;52.248;20.952;2023-04-25T00:30:21;14.47;;;13.00;;
17283;SDS011;8760;52.248;20.952;2023-04-25T00:32:48;14.97;;;12.97;;
17283;SDS011;8760;52.248;20.952;2023-04-25T00:35:15;14.97;;;12.83;;
17283;SDS011;8760;52.248;20.952;2023-04-25T00:37:44;16.97;;;13.27;;
17283;SDS011;8760;52.248;20.952;2023-04-25T00:40:11;15.97;;;14.23;;
17283;SDS011;8760;52.248;20.952;2023-04-25T00:42:38;17.30;;;13.53;;
17283;SDS011;8760;52.248;20.952;2023-04-25T00:45:07;17.90;;;13.80;;
17283;SDS011;8760;52.248;20.952;2023-04-25T00:47:38;15.23;;;13.63;;
17283;SDS011;8760;52.248;20.952;2023-04-25T00:50:07;18.47;;;14.43;;
17283;SDS011;8760;52.248;20.952;2023-04-25T00:52:34;18.90;;;14.10;;
17283;SDS011;8760;52.248;20.952;2023-04-25T00:55:03;16.03;;;14.33;;
17283;SDS011;8760;52.248;20.952;2023-04-25T00:57:31;19.30;;;14.80;;
17283;SDS011;8760;52.248;20.952;2023-04-25T00:59:58;17.93;;;14.57;;
17283;SDS011;8760;52.248;20.952;2023-04-25T01:02:25;16.57;;;14.87;;
17283;SDS011;8760;52.248;20.952;2023-04-25T01:04:53;16.60;;;14.27;;
17283;SDS011;8760;52.248;20.952;2023-04-25T01:07:20;16.10;;;14.10;;
17283;SDS011;8760;52.248;20.952;2023-04-25T01:09:47;17.60;;;14.73;;
17283;SDS011;8760;52.248;20.952;2023-04-25T01:12:16;17.47;;;14.10;;
17283;SDS011;8760;52.248;20.952;2023-04-25T01:14:43;16.87;;;14.07;;
17283;SDS011;8760;52.248;20.952;2023-04-25T01:17:10;17.37;;;14.20;;
17283;SDS011;8760;52.248;20.952;2023-04-25T01:19:37;18.60;;;14.47;;
17283;SDS011;8760;52.248;20.952;2023-04-25T01:22:06;16.87;;;14.77;;
17283;SDS011;8760;52.248;20.952;2023-04-25T01:24:35;16.00;;;14.40;;
17283;SDS011;8760;52.248;20.952;2023-04-25T01:27:03;16.70;;;13.50;;
17283;SDS011;8760;52.248;20.952;2023-04-25T01:29:32;17.20;;;13.83;;
17283;SDS011;8760;52.248;20.952;2023-04-25T01:32:00;18.17;;;13.97;;
17283;SDS011;8760;52.248;20.952;2023-04-25T01:34:28;17.77;;;14.40;;
17283;SDS011;8760;52.248;20.952;2023-04-25T01:36:55;15.43;;;13.83;;
17283;SDS011;8760;52.248;20.952;2023-04-25T01:39:24;14.97;;;13.40;;
17283;SDS011;8760;52.248;20.952;2023-04-25T01:41:51;16.47;;;13.63;;
17283;SDS011;8760;52.248;20.952;2023-04-25T01:44:18;16.90;;;13.23;;
17283;SDS011;8760;52.248;20.952;2023-04-25T01:46:45;15.50;;;13.97;;
17283;SDS011;8760;52.248;20.952;2023-04-25T01:49:12;15.20;;;13.60;;
17283;SDS011;8760;52.248;20.952;2023-04-25T01:51:39;20.40;;;14.70;;
17283;SDS011;8760;52.248;20.952;2023-04-25T01:54:06;16.20;;;14.00;;
17283;SDS011;8760;52.248;20.952;2023-04-25T01:56:37;15.80;;;14.10;;
17283;SDS011;8760;52.248;20.952;2023-04-25T01:59:04;18.73;;;13.87;;
17283;SDS011;8760;52.248;20.952;2023-04-25T02:01:31;15.00;;;13.37;;
17283;SDS011;8760;52.248;20.952;2023-04-25T02:03:58;16.20;;;13.50;;
17283;SDS011;8760;52.248;20.952;2023-04-25T02:06:25;14.87;;;13.40;;
17283;SDS011;8760;52.248;20.952;2023-04-25T02:08:52;15.40;;;12.70;;
17283;SDS011;8760;52.248;20.952;2023-04-25T02:11:19;16.43;;;13.57;;
17283;SDS011;8760;52.248;20.952;2023-04-25T02:13:47;19.00;;;13.47;;
17283;SDS011;8760;52.248;20.952;2023-04-25T02:16:14;14.10;;;12.60;;
17283;SDS011;8760;52.248;20.952;2023-04-25T02:18:41;17.90;;;12.97;;
17283;SDS011;8760;52.248;20.952;2023-04-25T02:21:08;18.53;;;13.37;;
17283;SDS011;8760;52.248;20.952;2023-04-25T02:23:34;15.80;;;13.20;;
17283;SDS011;8760;52.248;20.952;2023-04-25T02:26:01;14.13;;;12.23;;
17283;SDS011;8760;52.248;20.952;2023-04-25T02:28:28;13.43;;;12.10;;
17283;SDS011;8760;52.248;20.952;2023-04-25T02:30:57;17.10;;;12.67;;
17283;SDS011;8760;52.248;20.952;2023-04-25T02:33:23;15.80;;;12.07;;
17283;SDS011;8760;52.248;20.952;2023-04-25T02:35:50;14.30;;;12.47;;
17283;SDS011;8760;52.248;20.952;2023-04-25T02:38:17;13.63;;;12.23;;
17283;SDS011;8760;52.248;20.952;2023-04-25T02:40:44;14.90;;;12.27;;
17283;SDS011;8760;52.248;20.952;2023-04-25T02:43:11;12.97;;;11.37;;
17283;SDS011;8760;52.248;20.952;2023-04-25T02:45:38;14.73;;;12.40;;
17283;SDS011;8760;52.248;20.952;2023-04-25T02:48:06;15.17;;;12.60;;
17283;SDS011;8760;52.248;20.952;2023-04-25T02:50:33;14.67;;;12.13;;
17283;SDS011;8760;52.248;20.952;2023-04-25T02:53:00;16.37;;;12.80;;
17283;SDS011;8760;52.248;20.952;2023-04-25T02:55:26;14.27;;;12.70;;
17283;SDS011;8760;52.248;20.952;2023-04-25T02:57:53;13.33;;;11.00;;
17283;SDS011;8760;52.248;20.952;2023-04-25T03:00:21;13.33;;;11.33;;
17283;SDS011;8760;52.248;20.952;2023-04-25T03:02:48;13.43;;;11.53;;
17283;SDS011;8760;52.248;20.952;2023-04-25T03:05:17;14.50;;;11.33;;
17283;SDS011;8760;52.248;20.952;2023-04-25T03:07:44;12.47;;;11.03;;
17283;SDS011;8760;52.248;20.952;2023-04-25T03:10:11;12.93;;;11.23;;
17283;SDS011;8760;52.248;20.952;2023-04-25T03:12:39;13.27;;;11.00;;
17283;SDS011;8760;52.248;20.952;2023-04-25T03:15:06;12.70;;;11.23;;
17283;SDS011;8760;52.248;20.952;2023-04-25T03:17:33;11.90;;;10.50;;
17283;SDS011;8760;52.248;20.952;2023-04-25T03:20:00;13.87;;;10.87;;
17283;SDS011;8760;52.248;20.952;2023-04-25T03:22:30;11.83;;;10.53;;
17283;SDS011;8760;52.248;20.952;2023-04-25T03:24:57;13.03;;;10.03;;
17283;SDS011;8760;52.248;20.952;2023-04-25T03:27:24;13.47;;;10.57;;
17283;SDS011;8760;52.248;20.952;2023-04-25T03:29:51;14.03;;;11.00;;
17283;SDS011;8760;52.248;20.952;2023-04-25T03:32:18;13.03;;;10.47;;
17283;SDS011;8760;52.248;20.952;2023-04-25T03:34:44;13.30;;;10.37;;
17283;SDS011;8760;52.248;20.952;2023-04-25T03:37:11;14.93;;;11.10;;
17283;SDS011;8760;52.248;20.952;2023-04-25T03:39:40;13.07;;;10.07;;
17283;SDS011;8760;52.248;20.952;2023-04-25T03:42:06;13.37;;;10.23;;
17283;SDS011;8760;52.248;20.952;2023-04-25T03:44:33;16.17;;;10.73;;
17283;SDS011;8760;52.248;20.952;2023-04-25T03:47:00;14.13;;;10.13;;
17283;SDS011;8760;52.248;20.952;2023-04-25T03:49:27;11.87;;;10.30;;
17283;SDS011;8760;52.248;20.952;2023-04-25T03:51:54;12.53;;;10.73;;
17283;SDS011;8760;52.248;20.952;2023-04-25T03:54:21;12.77;;;10.40;;
17283;SDS011;8760;52.248;20.952;2023-04-25T03:56:49;11.07;;;9.00;;
17283;SDS011;8760;52.248;20.952;2023-04-25T03:59:16;11.63;;;9.60;;
17283;SDS011;8760;52.248;20.952;2023-04-25T04:01:43;13.10;;;9.97;;
17283;SDS011;8760;52.248;20.952;2023-04-25T04:04:10;11.33;;;9.13;;
17283;SDS011;8760;52.248;20.952;2023-04-25T04:06:37;11.03;;;8.90;;
17283;SDS011;8760;52.248;20.952;2023-04-25T04:09:04;10.97;;;8.50;;
17283;SDS011;8760;52.248;20.952;2023-04-25T04:11:34;10.70;;;8.50;;
17283;SDS011;8760;52.248;20.952;2023-04-25T04:14:04;11.40;;;8.67;;
17283;SDS011;8760;52.248;20.952;2023-04-25T04:16:31;10.83;;;8.57;;
17283;SDS011;8760;52.248;20.952;2023-04-25T04:18:58;12.33;;;7.63;;
17283;SDS011;8760;52.248;20.952;2023-04-25T04:21:25;9.70;;;8.60;;
17283;SDS011;8760;52.248;20.952;2023-04-25T04:23:52;9.63;;;8.43;;
17283;SDS011;8760;52.248;20.952;2023-04-25T04:26:20;12.40;;;8.43;;
17283;SDS011;8760;52.248;20.952;2023-04-25T04:28:48;9.97;;;8.40;;
17283;SDS011;8760;52.248;20.952;2023-04-25T04:31:17;11.20;;;8.37;;
17283;SDS011;8760;52.248;20.952;2023-04-25T04:33:44;10.60;;;8.20;;
17283;SDS011;8760;52.248;20.952;2023-04-25T04:36:11;10.03;;;8.93;;
17283;SDS011;8760;52.248;20.952;2023-04-25T04:38:38;10.67;;;8.30;;
17283;SDS011;8760;52.248;20.952;2023-04-25T04:41:07;11.10;;;8.80;;
17283;SDS011;8760;52.248;20.952;2023-04-25T04:43:34;10.73;;;8.70;;
17283;SDS011;8760;52.248;20.952;2023-04-25T04:46:01;11.33;;;8.53;;
17283;SDS011;8760;52.248;20.952;2023-04-25T04:48:32;10.50;;;9.07;;
17283;SDS011;8760;52.248;20.952;2023-04-25T04:50:59;10.60;;;9.30;;
17283;SDS011;8760;52.248;20.952;2023-04-25T04:53:26;11.43;;;9.50;;
17283;SDS011;8760;52.248;20.952;2023-04-25T04:55:53;13.47;;;9.60;;
17283;SDS011;8760;52.248;20.952;2023-04-25T04:58:21;11.50;;;9.87;;
17283;SDS011;8760;52.248;20.952;2023-04-25T05:00:48;10.83;;;9.57;;
17283;SDS011;8760;52.248;20.952;2023-04-25T05:03:15;12.57;;;9.97;;
17283;SDS011;8760;52.248;20.952;2023-04-25T05:05:43;10.17;;;9.07;;
17283;SDS011;8760;52.248;20.952;2023-04-25T05:08:11;10.87;;;9.07;;
17283;SDS011;8760;52.248;20.952;2023-04-25T05:10:37;10.47;;;9.47;;
17283;SDS011;8760;52.248;20.952;2023-04-25T05:13:04;11.87;;;10.13;;
17283;SDS011;8760;52.248;20.952;2023-04-25T05:15:31;10.60;;;9.53;;
17283;SDS011;8760;52.248;20.952;2023-04-25T05:17:58;10.73;;;9.67;;
17283;SDS011;8760;52.248;20.952;2023-04-25T05:20:26;12.20;;;9.70;;
17283;SDS011;8760;52.248;20.952;2023-04-25T05:22:54;11.20;;;10.00;;
17283;SDS011;8760;52.248;20.952;2023-04-25T05:25:21;11.23;;;9.27;;
17283;SDS011;8760;52.248;20.952;2023-04-25T05:27:48;10.23;;;9.13;;
17283;SDS011;8760;52.248;20.952;2023-04-25T05:30:17;10.70;;;9.13;;
17283;SDS011;8760;52.248;20.952;2023-04-25T05:32:44;11.53;;;9.57;;
17283;SDS011;8760;52.248;20.952;2023-04-25T05:35:11;10.53;;;9.43;;
17283;SDS011;8760;52.248;20.952;2023-04-25T05:37:38;9.73;;;8.83;;
17283;SDS011;8760;52.248;20.952;2023-04-25T05:40:07;12.20;;;8.87;;
17283;SDS011;8760;52.248;20.952;2023-04-25T05:42:35;10.10;;;9.10;;
17283;SDS011;8760;52.248;20.952;2023-04-25T05:45:02;32.33;;;23.90;;
17283;SDS011;8760;52.248;20.952;2023-04-25T05:47:29;16.33;;;13.07;;
17283;SDS011;8760;52.248;20.952;2023-04-25T05:49:56;10.40;;;9.40;;
17283;SDS011;8760;52.248;20.952;2023-04-25T05:52:23;11.23;;;9.83;;
17283;SDS011;8760;52.248;20.952;2023-04-25T05:54:50;10.77;;;9.87;;
17283;SDS011;8760;52.248;20.952;2023-04-25T05:57:22;11.23;;;10.10;;
17283;SDS011;8760;52.248;20.952;2023-04-25T05:59:50;11.00;;;10.00;;
17283;SDS011;8760;52.248;20.952;2023-04-25T06:02:17;11.87;;;10.63;;
17283;SDS011;8760;52.248;20.952;2023-04-25T06:04:45;11.13;;;9.93;;
17283;SDS011;8760;52.248;20.952;2023-04-25T06:07:12;10.63;;;9.50;;
17283;SDS011;8760;52.248;20.952;2023-04-25T06:09:39;10.63;;;9.63;;
17283;SDS011;8760;52.248;20.952;2023-04-25T06:12:06;10.57;;;9.57;;
17283;SDS011;8760;52.248;20.952;2023-04-25T06:14:34;10.97;;;9.97;;
17283;SDS011;8760;52.248;20.952;2023-04-25T06:17:02;13.67;;;10.50;;
17283;SDS011;8760;52.248;20.952;2023-04-25T06:19:31;10.73;;;9.73;;
17283;SDS011;8760;52.248;20.952;2023-04-25T06:21:58;10.77;;;9.77;;
17283;SDS011;8760;52.248;20.952;2023-04-25T06:24:25;11.30;;;10.30;;
17283;SDS011;8760;52.248;20.952;2023-04-25T06:26:52;11.50;;;10.40;;
17283;SDS011;8760;52.248;20.952;2023-04-25T06:29:19;12.73;;;11.47;;
17283;SDS011;8760;52.248;20.952;2023-04-25T06:31:47;10.77;;;9.73;;
17283;SDS011;8760;52.248;20.952;2023-04-25T06:34:14;11.97;;;10.70;;
17283;SDS011;8760;52.248;20.952;2023-04-25T06:36:42;12.87;;;10.40;;
17283;SDS011;8760;52.248;20.952;2023-04-25T06:39:09;10.30;;;9.20;;
17283;SDS011;8760;52.248;20.952;2023-04-25T06:41:36;9.70;;;8.70;;
17283;SDS011;8760;52.248;20.952;2023-04-25T06:44:03;8.33;;;7.30;;
17283;SDS011;8760;52.248;20.952;2023-04-25T06:46:31;8.53;;;7.23;;
17283;SDS011;8760;52.248;20.952;2023-04-25T06:48:59;8.17;;;7.37;;
17283;SDS011;8760;52.248;20.952;2023-04-25T06:51:26;9.87;;;7.60;;
17283;SDS011;8760;52.248;20.952;2023-04-25T06:53:55;8.13;;;7.33;;
17283;SDS011;8760;52.248;20.952;2023-04-25T06:56:21;10.57;;;7.67;;
17283;SDS011;8760;52.248;20.952;2023-04-25T06:58:49;9.80;;;8.03;;
17283;SDS011;8760;52.248;20.952;2023-04-25T07:01:16;12.67;;;9.80;;
17283;SDS011;8760;52.248;20.952;2023-04-25T07:03:43;9.67;;;8.67;;
17283;SDS011;8760;52.248;20.952;2023-04-25T07:06:11;11.07;;;9.13;;
17283;SDS011;8760;52.248;20.952;2023-04-25T07:08:38;8.70;;;7.80;;
17283;SDS011;8760;52.248;20.952;2023-04-25T07:11:05;9.00;;;6.73;;
17283;SDS011;8760;52.248;20.952;2023-04-25T07:13:32;9.00;;;7.50;;
17283;SDS011;8760;52.248;20.952;2023-04-25T07:15:58;7.97;;;7.27;;
17283;SDS011;8760;52.248;20.952;2023-04-25T07:18:26;9.17;;;7.23;;
17283;SDS011;8760;52.248;20.952;2023-04-25T07:20:52;8.37;;;7.47;;
17283;SDS011;8760;52.248;20.952;2023-04-25T07:23:21;7.50;;;6.80;;
17283;SDS011;8760;52.248;20.952;2023-04-25T07:25:48;7.13;;;6.20;;
17283;SDS011;8760;52.248;20.952;2023-04-25T07:28:15;8.07;;;7.27;;
17283;SDS011;8760;52.248;20.952;2023-04-25T07:30:41;7.47;;;6.23;;
17283;SDS011;8760;52.248;20.952;2023-04-25T07:33:08;8.17;;;6.77;;
17283;SDS011;8760;52.248;20.952;2023-04-25T07:35:35;6.90;;;6.30;;
17283;SDS011;8760;52.248;20.952;2023-04-25T07:38:02;6.17;;;5.57;;
17283;SDS011;8760;52.248;20.952;2023-04-25T07:40:33;6.33;;;5.73;;
17283;SDS011;8760;52.248;20.952;2023-04-25T07:43:00;7.03;;;5.60;;
17283;SDS011;8760;52.248;20.952;2023-04-25T07:45:27;6.60;;;6.00;;
17283;SDS011;8760;52.248;20.952;2023-04-25T07:47:54;7.00;;;6.27;;
17283;SDS011;8760;52.248;20.952;2023-04-25T07:50:21;5.77;;;5.27;;
17283;SDS011;8760;52.248;20.952;2023-04-25T07:52:48;7.73;;;6.03;;
17283;SDS011;8760;52.248;20.952;2023-04-25T07:55:15;6.73;;;6.03;;
17283;SDS011;8760;52.248;20.952;2023-04-25T07:57:44;6.20;;;5.70;;
17283;SDS011;8760;52.248;20.952;2023-04-25T08:00:11;6.50;;;5.90;;
17283;SDS011;8760;52.248;20.952;2023-04-25T08:02:40;5.63;;;5.13;;
17283;SDS011;8760;52.248;20.952;2023-04-25T08:05:07;7.27;;;6.57;;
17283;SDS011;8760;52.248;20.952;2023-04-25T08:07:36;8.37;;;7.50;;
17283;SDS011;8760;52.248;20.952;2023-04-25T08:10:04;9.63;;;8.63;;
17283;SDS011;8760;52.248;20.952;2023-04-25T08:12:32;9.17;;;8.37;;
17283;SDS011;8760;52.248;20.952;2023-04-25T08:15:00;9.13;;;8.33;;
17283;SDS011;8760;52.248;20.952;2023-04-25T08:17:27;9.23;;;8.33;;
17283;SDS011;8760;52.248;20.952;2023-04-25T08:19:54;8.40;;;7.63;;
17283;SDS011;8760;52.248;20.952;2023-04-25T08:22:22;7.10;;;6.40;;
17283;SDS011;8760;52.248;20.952;2023-04-25T08:24:48;7.70;;;6.40;;
17283;SDS011;8760;52.248;20.952;2023-04-25T08:27:15;5.20;;;4.70;;
17283;SDS011;8760;52.248;20.952;2023-04-25T08:29:43;5.47;;;4.67;;
17283;SDS011;8760;52.248;20.952;2023-04-25T08:32:11;5.03;;;4.60;;
17283;SDS011;8760;52.248;20.952;2023-04-25T08:34:38;6.47;;;4.40;;
17283;SDS011;8760;52.248;20.952;2023-04-25T08:37:07;4.87;;;4.47;;
17283;SDS011;8760;52.248;20.952;2023-04-25T08:39:34;6.17;;;4.87;;
17283;SDS011;8760;52.248;20.952;2023-04-25T08:42:02;5.37;;;4.87;;
17283;SDS011;8760;52.248;20.952;2023-04-25T08:44:32;5.77;;;5.20;;
17283;SDS011;8760;52.248;20.952;2023-04-25T08:47:00;5.97;;;5.47;;
17283;SDS011;8760;52.248;20.952;2023-04-25T08:49:30;6.20;;;5.70;;
17283;SDS011;8760;52.248;20.952;2023-04-25T08:51:59;6.80;;;6.10;;
17283;SDS011;8760;52.248;20.952;2023-04-25T08:54:27;6.53;;;5.93;;
17283;SDS011;8760;52.248;20.952;2023-04-25T08:56:56;6.10;;;5.50;;
17283;SDS011;8760;52.248;20.952;2023-04-25T08:59:24;5.87;;;5.30;;
17283;SDS011;8760;52.248;20.952;2023-04-25T09:01:51;4.73;;;4.33;;
17283;SDS011;8760;52.248;20.952;2023-04-25T09:04:17;5.00;;;4.47;;
17283;SDS011;8760;52.248;20.952;2023-04-25T09:06:46;4.90;;;4.40;;
17283;SDS011;8760;52.248;20.952;2023-04-25T09:09:13;4.90;;;4.40;;
17283;SDS011;8760;52.248;20.952;2023-04-25T09:11:40;5.97;;;5.23;;
17283;SDS011;8760;52.248;20.952;2023-04-25T09:14:14;6.73;;;5.67;;
17283;SDS011;8760;52.248;20.952;2023-04-25T09:16:57;7.70;;;7.00;;
17283;SDS011;8760;52.248;20.952;2023-04-25T09:19:25;7.77;;;7.17;;
17283;SDS011;8760;52.248;20.952;2023-04-25T09:21:55;8.73;;;7.87;;
17283;SDS011;8760;52.248;20.952;2023-04-25T09:24:30;8.83;;;8.03;;
17283;SDS011;8760;52.248;20.952;2023-04-25T09:27:03;9.80;;;8.90;;
17283;SDS011;8760;52.248;20.952;2023-04-25T09:29:31;10.20;;;9.30;;
17283;SDS011;8760;52.248;20.952;2023-04-25T09:32:11;9.00;;;8.10;;
17283;SDS011;8760;52.248;20.952;2023-04-25T09:34:41;9.07;;;8.23;;
17283;SDS011;8760;52.248;20.952;2023-04-25T09:37:11;9.90;;;9.00;;
17283;SDS011;8760;52.248;20.952;2023-04-25T09:39:38;9.50;;;8.60;;
17283;SDS011;8760;52.248;20.952;2023-04-25T09:42:05;9.27;;;8.47;;
17283;SDS011;8760;52.248;20.952;2023-04-25T09:44:32;9.87;;;8.97;;
17283;SDS011;8760;52.248;20.952;2023-04-25T09:46:59;9.80;;;8.90;;
17283;SDS011;8760;52.248;20.952;2023-04-25T09:49:28;10.40;;;9.23;;
17283;SDS011;8760;52.248;20.952;2023-04-25T09:51:55;10.23;;;9.33;;
17283;SDS011;8760;52.248;20.952;2023-04-25T09:54:24;11.33;;;10.40;;
17283;SDS011;8760;52.248;20.952;2023-04-25T09:56:52;12.93;;;10.83;;
17283;SDS011;8760;52.248;20.952;2023-04-25T09:59:20;11.67;;;10.53;;
17283;SDS011;8760;52.248;20.952;2023-04-25T10:01:48;11.87;;;10.87;;
17283;SDS011;8760;52.248;20.952;2023-04-25T10:04:17;14.30;;;12.63;;
17283;SDS011;8760;52.248;20.952;2023-04-25T10:06:49;12.00;;;10.90;;
17283;SDS011;8760;52.248;20.952;2023-04-25T10:09:17;13.20;;;12.00;;
17283;SDS011;8760;52.248;20.952;2023-04-25T10:11:48;14.10;;;12.80;;
17283;SDS011;8760;52.248;20.952;2023-04-25T10:14:16;12.50;;;11.33;;
17283;SDS011;8760;52.248;20.952;2023-04-25T10:16:44;14.27;;;11.73;;
17283;SDS011;8760;52.248;20.952;2023-04-25T10:19:13;13.10;;;11.83;;
17283;SDS011;8760;52.248;20.952;2023-04-25T10:21:44;11.77;;;10.73;;
17283;SDS011;8760;52.248;20.952;2023-04-25T10:24:16;13.13;;;11.93;;
17283;SDS011;8760;52.248;20.952;2023-04-25T10:26:43;12.83;;;11.63;;
17283;SDS011;8760;52.248;20.952;2023-04-25T10:29:11;12.43;;;11.33;;
17283;SDS011;8760;52.248;20.952;2023-04-25T10:31:44;12.33;;;11.23;;
17283;SDS011;8760;52.248;20.952;2023-04-25T10:34:12;12.73;;;11.63;;
17283;SDS011;8760;52.248;20.952;2023-04-25T10:36:39;13.53;;;12.30;;
17283;SDS011;8760;52.248;20.952;2023-04-25T10:39:06;13.93;;;12.63;;
17283;SDS011;8760;52.248;20.952;2023-04-25T10:41:45;13.13;;;12.00;;
17283;SDS011;8760;52.248;20.952;2023-04-25T10:44:14;13.23;;;11.83;;
17283;SDS011;8760;52.248;20.952;2023-04-25T10:46:41;13.47;;;12.17;;
17283;SDS011;8760;52.248;20.952;2023-04-25T10:49:15;12.87;;;11.60;;
17283;SDS011;8760;52.248;20.952;2023-04-25T10:52:10;12.87;;;11.57;;
17283;SDS011;8760;52.248;20.952;2023-04-25T10:54:42;13.73;;;12.00;;
17283;SDS011;8760;52.248;20.952;2023-04-25T10:59:59;14.20;;;12.80;;
17283;SDS011;8760;52.248;20.952;2023-04-25T11:02:30;12.63;;;11.53;;
17283;SDS011;8760;52.248;20.952;2023-04-25T11:04:57;12.60;;;11.50;;
17283;SDS011;8760;52.248;20.952;2023-04-25T11:07:26;12.03;;;10.87;;
17283;SDS011;8760;52.248;20.952;2023-04-25T11:10:01;12.27;;;11.07;;
17283;SDS011;8760;52.248;20.952;2023-04-25T11:12:29;12.67;;;11.57;;
17283;SDS011;8760;52.248;20.952;2023-04-25T11:15:02;11.63;;;10.63;;
17283;SDS011;8760;52.248;20.952;2023-04-25T11:17:32;12.27;;;11.27;;
17283;SDS011;8760;52.248;20.952;2023-04-25T11:20:00;12.60;;;11.40;;
17283;SDS011;8760;52.248;20.952;2023-04-25T11:22:28;12.03;;;11.03;;
17283;SDS011;8760;52.248;20.952;2023-04-25T11:24:55;12.20;;;11.20;;
17283;SDS011;8760;52.248;20.952;2023-04-25T11:27:22;12.30;;;11.17;;
17283;SDS011;8760;52.248;20.952;2023-04-25T11:29:49;11.70;;;10.70;;
17283;SDS011;8760;52.248;20.952;2023-04-25T11:32:18;10.40;;;9.50;;
17283;SDS011;8760;52.248;20.952;2023-04-25T11:34:45;10.90;;;9.90;;
17283;SDS011;8760;52.248;20.952;2023-04-25T11:37:13;11.77;;;10.67;;
17283;SDS011;8760;52.248;20.952;2023-04-25T11:39:43;10.37;;;9.47;;
17283;SDS011;8760;52.248;20.952;2023-04-25T11:42:12;10.47;;;9.63;;
17283;SDS011;8760;52.248;20.952;2023-04-25T11:44:39;10.20;;;8.67;;
17283;SDS011;8760;52.248;20.952;2023-04-25T11:47:06;10.53;;;9.30;;
17283;SDS011;8760;52.248;20.952;2023-04-25T11:49:34;9.53;;;8.63;;
17283;SDS011;8760;52.248;20.952;2023-04-25T11:52:01;8.83;;;8.03;;
17283;SDS011;8760;52.248;20.952;2023-04-25T11:54:28;8.03;;;7.33;;
17283;SDS011;8760;52.248;20.952;2023-04-25T11:56:55;9.10;;;8.20;;
17283;SDS011;8760;52.248;20.952;2023-04-25T11:59:23;10.30;;;8.63;;
17283;SDS011;8760;52.248;20.952;2023-04-25T12:01:51;7.43;;;6.73;;
17283;SDS011;8760;52.248;20.952;2023-04-25T12:04:19;8.40;;;6.80;;
17283;SDS011;8760;52.248;20.952;2023-04-25T12:06:49;6.73;;;6.07;;
17283;SDS011;8760;52.248;20.952;2023-04-25T12:09:17;9.57;;;6.70;;
17283;SDS011;8760;52.248;20.952;2023-04-25T12:11:47;6.40;;;5.90;;
17283;SDS011;8760;52.248;20.952;2023-04-25T12:14:20;6.20;;;5.70;;
17283;SDS011;8760;52.248;20.952;2023-04-25T12:16:49;6.33;;;5.73;;
17283;SDS011;8760;52.248;20.952;2023-04-25T12:19:17;6.80;;;6.10;;
17283;SDS011;8760;52.248;20.952;2023-04-25T12:21:46;6.67;;;5.47;;
17283;SDS011;8760;52.248;20.952;2023-04-25T12:24:16;5.63;;;5.07;;
17283;SDS011;8760;52.248;20.952;2023-04-25T12:26:48;7.93;;;4.87;;
17283;SDS011;8760;52.248;20.952;2023-04-25T12:29:17;5.57;;;4.80;;
17283;SDS011;8760;52.248;20.952;2023-04-25T12:31:45;6.03;;;5.13;;
17283;SDS011;8760;52.248;20.952;2023-04-25T12:34:12;6.20;;;5.40;;
17283;SDS011;8760;52.248;20.952;2023-04-25T12:36:39;5.03;;;4.57;;
17283;SDS011;8760;52.248;20.952;2023-04-25T12:39:08;5.10;;;4.70;;
17283;SDS011;8760;52.248;20.952;2023-04-25T12:41:35;7.40;;;4.90;;
17283;SDS011;8760;52.248;20.952;2023-04-25T12:44:02;5.30;;;4.80;;
17283;SDS011;8760;52.248;20.952;2023-04-25T12:46:29;5.30;;;4.80;;
17283;SDS011;8760;52.248;20.952;2023-04-25T12:48:56;5.37;;;4.90;;
17283;SDS011;8760;52.248;20.952;2023-04-25T12:51:23;6.37;;;5.07;;
17283;SDS011;8760;52.248;20.952;2023-04-25T12:53:52;6.97;;;4.83;;
17283;SDS011;8760;52.248;20.952;2023-04-25T12:56:21;5.60;;;4.90;;
17283;SDS011;8760;52.248;20.952;2023-04-25T12:58:47;4.67;;;4.27;;
17283;SDS011;8760;52.248;20.952;2023-04-25T13:01:14;5.90;;;5.40;;
17283;SDS011;8760;52.248;20.952;2023-04-25T13:03:41;5.23;;;4.83;;
17283;SDS011;8760;52.248;20.952;2023-04-25T13:06:09;7.23;;;5.20;;
17283;SDS011;8760;52.248;20.952;2023-04-25T13:08:36;5.20;;;4.70;;
17283;SDS011;8760;52.248;20.952;2023-04-25T13:11:03;5.73;;;5.20;;
17283;SDS011;8760;52.248;20.952;2023-04-25T13:13:32;5.73;;;5.20;;
17283;SDS011;8760;52.248;20.952;2023-04-25T13:15:59;7.00;;;5.07;;
17283;SDS011;8760;52.248;20.952;2023-04-25T13:18:26;6.03;;;5.00;;
17283;SDS011;8760;52.248;20.952;2023-04-25T13:20:54;5.73;;;5.10;;
17283;SDS011;8760;52.248;20.952;2023-04-25T13:23:21;5.37;;;4.87;;
17283;SDS011;8760;52.248;20.952;2023-04-25T13:25:49;5.63;;;5.00;;
17283;SDS011;8760;52.248;20.952;2023-04-25T13:28:16;4.60;;;4.20;;
17283;SDS011;8760;52.248;20.952;2023-04-25T13:30:45;5.23;;;4.73;;
17283;SDS011;8760;52.248;20.952;2023-04-25T13:33:13;5.60;;;5.10;;
17283;SDS011;8760;52.248;20.952;2023-04-25T13:35:39;5.40;;;4.90;;
17283;SDS011;8760;52.248;20.952;2023-04-25T13:38:07;6.23;;;4.90;;
17283;SDS011;8760;52.248;20.952;2023-04-25T13:40:35;5.13;;;4.67;;
17283;SDS011;8760;52.248;20.952;2023-04-25T13:43:02;6.93;;;5.13;;
17283;SDS011;8760;52.248;20.952;2023-04-25T13:45:29;5.23;;;4.80;;
17283;SDS011;8760;52.248;20.952;2023-04-25T13:47:57;5.27;;;4.70;;
17283;SDS011;8760;52.248;20.952;2023-04-25T13:50:24;5.83;;;4.80;;
17283;SDS011;8760;52.248;20.952;2023-04-25T13:52:51;5.47;;;4.97;;
17283;SDS011;8760;52.248;20.952;2023-04-25T13:55:18;5.43;;;4.93;;
17283;SDS011;8760;52.248;20.952;2023-04-25T13:57:45;6.27;;;5.00;;
17283;SDS011;8760;52.248;20.952;2023-04-25T14:00:12;5.13;;;4.63;;
17283;SDS011;8760;52.248;20.952;2023-04-25T14:02:40;7.00;;;5.10;;
17283;SDS011;8760;52.248;20.952;2023-04-25T14:05:08;6.03;;;4.93;;
17283;SDS011;8760;52.248;20.952;2023-04-25T14:07:35;5.03;;;4.33;;
17283;SDS011;8760;52.248;20.952;2023-04-25T14:10:03;4.70;;;4.30;;
17283;SDS011;8760;52.248;20.952;2023-04-25T14:12:31;5.17;;;4.00;;
17283;SDS011;8760;52.248;20.952;2023-04-25T14:14:59;6.70;;;4.13;;
17283;SDS011;8760;52.248;20.952;2023-04-25T14:17:26;5.70;;;4.40;;
17283;SDS011;8760;52.248;20.952;2023-04-25T14:19:53;4.97;;;4.57;;
17283;SDS011;8760;52.248;20.952;2023-04-25T14:22:21;5.73;;;3.97;;
17283;SDS011;8760;52.248;20.952;2023-04-25T14:24:48;4.33;;;3.70;;
17283;SDS011;8760;52.248;20.952;2023-04-25T14:27:16;4.50;;;3.90;;
17283;SDS011;8760;52.248;20.952;2023-04-25T14:29:42;5.33;;;4.23;;
17283;SDS011;8760;52.248;20.952;2023-04-25T14:32:09;4.23;;;3.83;;
17283;SDS011;8760;52.248;20.952;2023-04-25T14:34:36;5.83;;;4.10;;
17283;SDS011;8760;52.248;20.952;2023-04-25T14:37:03;5.07;;;4.23;;
17283;SDS011;8760;52.248;20.952;2023-04-25T14:39:32;4.90;;;4.40;;